sensor_id;sensor_type;location;lat;lon;timestamp;temperature;humidity
10095;DHT22;5086;50.830;7.102;2023-06-22T00:00:48;22.30;99.90
10095;DHT22;5086;50.830;7.102;2023-06-22T00:03:15;22.40;99.90
10095;DHT22;5086;50.830;7.102;2023-06-22T00:05:42;22.50;99.90
10095;DHT22;5086;50.830;7.102;2023-06-22T00:08:08;22.50;99.90
10095;DHT22;5086;50.830;7.102;2023-06-22T00:10:35;22.40;99.90
10095;DHT22;5086;50.830;7.102;2023-06-22T00:13:04;22.50;99.90
10095;DHT22;5086;50.830;7.102;2023-06-22T00:15:30;22.40;99.90
10095;DHT22;5086;50.830;7.102;2023-06-22T00:17:57;22.30;99.90
10095;DHT22;5086;50.830;7.102;2023-06-22T00:20:24;22.30;99.90
10095;DHT22;5086;50.830;7.102;2023-06-22T00:22:53;22.20;99.90
10095;DHT22;5086;50.830;7.102;2023-06-22T00:25:20;22.20;99.90
10095;DHT22;5086;50.830;7.102;2023-06-22T00:27:47;22.20;99.90
10095;DHT22;5086;50.830;7.102;2023-06-22T00:30:15;22.20;99.90
10095;DHT22;5086;50.830;7.102;2023-06-22T00:32:42;22.20;99.90
10095;DHT22;5086;50.830;7.102;2023-06-22T00:35:09;22.30;99.90
10095;DHT22;5086;50.830;7.102;2023-06-22T00:37:36;22.30;99.90
10095;DHT22;5086;50.830;7.102;2023-06-22T00:40:04;22.20;99.90
10095;DHT22;5086;50.830;7.102;2023-06-22T00:42:32;22.20;99.90
10095;DHT22;5086;50.830;7.102;2023-06-22T00:44:59;22.30;99.90
10095;DHT22;5086;50.830;7.102;2023-06-22T00:47:27;22.30;99.90
10095;DHT22;5086;50.830;7.102;2023-06-22T00:49:54;22.20;99.90
10095;DHT22;5086;50.830;7.102;2023-06-22T00:52:22;22.20;99.90
10095;DHT22;5086;50.830;7.102;2023-06-22T00:54:52;22.20;99.90
10095;DHT22;5086;50.830;7.102;2023-06-22T00:57:20;22.20;99.90
10095;DHT22;5086;50.830;7.102;2023-06-22T00:59:48;22.10;99.90
10095;DHT22;5086;50.830;7.102;2023-06-22T01:02:15;22.10;99.90
10095;DHT22;5086;50.830;7.102;2023-06-22T01:04:43;22.20;99.90
10095;DHT22;5086;50.830;7.102;2023-06-22T01:07:15;22.10;99.90
10095;DHT22;5086;50.830;7.102;2023-06-22T01:09:49;21.90;99.90
10095;DHT22;5086;50.830;7.102;2023-06-22T01:12:18;21.90;99.90
10095;DHT22;5086;50.830;7.102;2023-06-22T01:14:52;21.90;99.90
10095;DHT22;5086;50.830;7.102;2023-06-22T01:17:21;21.70;99.90
10095;DHT22;5086;50.830;7.102;2023-06-22T01:19:51;21.70;99.90
10095;DHT22;5086;50.830;7.102;2023-06-22T01:22:24;21.70;99.90
10095;DHT22;5086;50.830;7.102;2023-06-22T01:24:57;21.70;99.90
10095;DHT22;5086;50.830;7.102;2023-06-22T01:27:33;21.70;99.90
10095;DHT22;5086;50.830;7.102;2023-06-22T01:30:05;21.70;99.90
10095;DHT22;5086;50.830;7.102;2023-06-22T01:32:34;21.80;99.90
10095;DHT22;5086;50.830;7.102;2023-06-22T01:35:04;21.80;99.90
10095;DHT22;5086;50.830;7.102;2023-06-22T01:37:33;21.70;99.90
10095;DHT22;5086;50.830;7.102;2023-06-22T01:40:01;21.60;99.90
10095;DHT22;5086;50.830;7.102;2023-06-22T01:42:30;21.50;99.90
10095;DHT22;5086;50.830;7.102;2023-06-22T01:44:58;21.50;99.90
10095;DHT22;5086;50.830;7.102;2023-06-22T01:47:27;21.60;99.90
10095;DHT22;5086;50.830;7.102;2023-06-22T01:49:54;21.60;99.90
10095;DHT22;5086;50.830;7.102;2023-06-22T01:52:21;21.60;99.90
10095;DHT22;5086;50.830;7.102;2023-06-22T01:54:48;21.70;99.90
10095;DHT22;5086;50.830;7.102;2023-06-22T01:57:15;21.70;99.90
10095;DHT22;5086;50.830;7.102;2023-06-22T01:59:47;21.80;99.90
10095;DHT22;5086;50.830;7.102;2023-06-22T02:02:17;21.80;99.90
10095;DHT22;5086;50.830;7.102;2023-06-22T02:04:51;21.80;99.90
10095;DHT22;5086;50.830;7.102;2023-06-22T02:07:19;21.70;99.90
10095;DHT22;5086;50.830;7.102;2023-06-22T02:09:49;21.70;99.90
10095;DHT22;5086;50.830;7.102;2023-06-22T02:12:24;21.70;99.90
10095;DHT22;5086;50.830;7.102;2023-06-22T02:14:53;21.70;99.90
10095;DHT22;5086;50.830;7.102;2023-06-22T02:17:20;21.60;99.90
10095;DHT22;5086;50.830;7.102;2023-06-22T02:19:48;21.60;99.90
10095;DHT22;5086;50.830;7.102;2023-06-22T02:22:15;21.60;99.90
10095;DHT22;5086;50.830;7.102;2023-06-22T02:24:42;21.50;99.90
10095;DHT22;5086;50.830;7.102;2023-06-22T02:27:09;21.50;99.90
10095;DHT22;5086;50.830;7.102;2023-06-22T02:29:36;21.60;99.90
10095;DHT22;5086;50.830;7.102;2023-06-22T02:32:03;21.60;99.90
10095;DHT22;5086;50.830;7.102;2023-06-22T02:34:30;21.60;99.90
10095;DHT22;5086;50.830;7.102;2023-06-22T02:37:00;21.50;99.90
10095;DHT22;5086;50.830;7.102;2023-06-22T02:39:28;21.50;99.90
10095;DHT22;5086;50.830;7.102;2023-06-22T02:41:55;21.60;99.90
10095;DHT22;5086;50.830;7.102;2023-06-22T02:44:22;21.60;99.90
10095;DHT22;5086;50.830;7.102;2023-06-22T02:46:49;21.60;99.90
10095;DHT22;5086;50.830;7.102;2023-06-22T02:49:16;21.60;99.90
10095;DHT22;5086;50.830;7.102;2023-06-22T02:51:45;21.60;99.90
10095;DHT22;5086;50.830;7.102;2023-06-22T02:54:13;21.60;99.90
10095;DHT22;5086;50.830;7.102;2023-06-22T02:56:40;21.60;99.90
10095;DHT22;5086;50.830;7.102;2023-06-22T02:59:09;21.60;99.90
10095;DHT22;5086;50.830;7.102;2023-06-22T03:01:36;21.50;99.90
10095;DHT22;5086;50.830;7.102;2023-06-22T03:04:05;21.50;99.90
10095;DHT22;5086;50.830;7.102;2023-06-22T03:06:32;21.50;99.90
10095;DHT22;5086;50.830;7.102;2023-06-22T03:09:00;21.50;99.90
10095;DHT22;5086;50.830;7.102;2023-06-22T03:11:30;21.50;99.90
10095;DHT22;5086;50.830;7.102;2023-06-22T03:13:57;21.50;99.90
10095;DHT22;5086;50.830;7.102;2023-06-22T03:16:24;21.40;99.90
10095;DHT22;5086;50.830;7.102;2023-06-22T03:18:51;21.30;99.90
10095;DHT22;5086;50.830;7.102;2023-06-22T03:21:19;21.20;99.90
10095;DHT22;5086;50.830;7.102;2023-06-22T03:23:45;21.20;99.90
10095;DHT22;5086;50.830;7.102;2023-06-22T03:26:12;21.10;99.90
10095;DHT22;5086;50.830;7.102;2023-06-22T03:35:39;21.20;99.90
10095;DHT22;5086;50.830;7.102;2023-06-22T03:38:06;21.20;99.90
10095;DHT22;5086;50.830;7.102;2023-06-22T03:40:33;21.20;99.90
10095;DHT22;5086;50.830;7.102;2023-06-22T03:42:59;21.10;99.90
10095;DHT22;5086;50.830;7.102;2023-06-22T03:45:26;21.10;99.90
10095;DHT22;5086;50.830;7.102;2023-06-22T03:47:53;21.10;99.90
10095;DHT22;5086;50.830;7.102;2023-06-22T03:50:20;21.00;99.90
10095;DHT22;5086;50.830;7.102;2023-06-22T03:52:48;21.10;99.90
10095;DHT22;5086;50.830;7.102;2023-06-22T03:55:17;21.00;99.90
10095;DHT22;5086;50.830;7.102;2023-06-22T03:57:43;21.00;99.90
10095;DHT22;5086;50.830;7.102;2023-06-22T04:00:11;21.10;99.90
10095;DHT22;5086;50.830;7.102;2023-06-22T04:02:38;21.10;99.90
10095;DHT22;5086;50.830;7.102;2023-06-22T04:05:06;21.10;99.90
10095;DHT22;5086;50.830;7.102;2023-06-22T04:07:32;21.10;99.90
10095;DHT22;5086;50.830;7.102;2023-06-22T04:10:00;21.10;99.90
10095;DHT22;5086;50.830;7.102;2023-06-22T04:12:27;21.20;99.90
10095;DHT22;5086;50.830;7.102;2023-06-22T04:14:54;21.20;99.90
10095;DHT22;5086;50.830;7.102;2023-06-22T04:17:21;21.30;99.90
10095;DHT22;5086;50.830;7.102;2023-06-22T04:19:50;21.20;99.90
10095;DHT22;5086;50.830;7.102;2023-06-22T04:22:17;21.20;99.90
10095;DHT22;5086;50.830;7.102;2023-06-22T04:24:44;21.20;99.90
10095;DHT22;5086;50.830;7.102;2023-06-22T04:27:12;21.30;99.90
10095;DHT22;5086;50.830;7.102;2023-06-22T04:29:38;21.30;99.90
10095;DHT22;5086;50.830;7.102;2023-06-22T04:32:14;21.30;99.90
10095;DHT22;5086;50.830;7.102;2023-06-22T04:34:41;21.30;99.90
10095;DHT22;5086;50.830;7.102;2023-06-22T04:37:08;21.30;99.90
10095;DHT22;5086;50.830;7.102;2023-06-22T04:39:35;21.40;99.90
10095;DHT22;5086;50.830;7.102;2023-06-22T04:42:02;21.40;99.90
10095;DHT22;5086;50.830;7.102;2023-06-22T04:44:31;21.40;99.90
10095;DHT22;5086;50.830;7.102;2023-06-22T04:46:59;21.50;99.90
10095;DHT22;5086;50.830;7.102;2023-06-22T04:49:28;21.40;99.90
10095;DHT22;5086;50.830;7.102;2023-06-22T04:51:58;21.50;99.90
10095;DHT22;5086;50.830;7.102;2023-06-22T04:54:25;21.50;99.90
10095;DHT22;5086;50.830;7.102;2023-06-22T04:56:52;21.50;99.90
10095;DHT22;5086;50.830;7.102;2023-06-22T04:59:21;21.50;99.90
10095;DHT22;5086;50.830;7.102;2023-06-22T05:01:55;21.50;99.90
10095;DHT22;5086;50.830;7.102;2023-06-22T05:04:24;21.60;99.90
10095;DHT22;5086;50.830;7.102;2023-06-22T05:06:51;21.60;99.90
10095;DHT22;5086;50.830;7.102;2023-06-22T05:09:18;21.60;99.90
10095;DHT22;5086;50.830;7.102;2023-06-22T05:11:45;21.60;99.90
10095;DHT22;5086;50.830;7.102;2023-06-22T05:14:12;21.60;99.90
10095;DHT22;5086;50.830;7.102;2023-06-22T05:16:41;21.70;99.90
10095;DHT22;5086;50.830;7.102;2023-06-22T05:19:09;21.80;99.90
10095;DHT22;5086;50.830;7.102;2023-06-22T05:21:36;21.80;99.90
10095;DHT22;5086;50.830;7.102;2023-06-22T05:24:03;21.90;99.90
10095;DHT22;5086;50.830;7.102;2023-06-22T05:26:31;22.00;99.90
10095;DHT22;5086;50.830;7.102;2023-06-22T05:28:59;22.10;99.90
10095;DHT22;5086;50.830;7.102;2023-06-22T05:31:26;22.10;99.90
10095;DHT22;5086;50.830;7.102;2023-06-22T05:33:54;22.50;99.90
10095;DHT22;5086;50.830;7.102;2023-06-22T05:36:22;23.00;99.90
10095;DHT22;5086;50.830;7.102;2023-06-22T05:38:51;23.40;99.90
10095;DHT22;5086;50.830;7.102;2023-06-22T05:41:18;23.50;99.90
10095;DHT22;5086;50.830;7.102;2023-06-22T05:43:45;23.60;99.90
10095;DHT22;5086;50.830;7.102;2023-06-22T05:46:11;23.50;99.90
10095;DHT22;5086;50.830;7.102;2023-06-22T05:48:38;23.40;99.90
10095;DHT22;5086;50.830;7.102;2023-06-22T05:51:05;23.60;99.90
10095;DHT22;5086;50.830;7.102;2023-06-22T05:53:33;23.70;99.90
10095;DHT22;5086;50.830;7.102;2023-06-22T05:56:00;23.70;99.90
10095;DHT22;5086;50.830;7.102;2023-06-22T05:58:26;23.60;99.90
10095;DHT22;5086;50.830;7.102;2023-06-22T06:00:54;23.60;99.90
10095;DHT22;5086;50.830;7.102;2023-06-22T06:03:21;23.50;99.90
10095;DHT22;5086;50.830;7.102;2023-06-22T06:05:48;23.50;99.90
10095;DHT22;5086;50.830;7.102;2023-06-22T06:08:15;23.30;99.90
10095;DHT22;5086;50.830;7.102;2023-06-22T06:10:43;23.20;99.90
10095;DHT22;5086;50.830;7.102;2023-06-22T06:13:10;23.20;99.90
10095;DHT22;5086;50.830;7.102;2023-06-22T06:15:37;23.40;99.90
10095;DHT22;5086;50.830;7.102;2023-06-22T06:18:05;23.40;99.90
10095;DHT22;5086;50.830;7.102;2023-06-22T06:20:32;23.50;99.90
10095;DHT22;5086;50.830;7.102;2023-06-22T06:22:59;23.60;99.90
10095;DHT22;5086;50.830;7.102;2023-06-22T06:25:26;23.50;99.90
10095;DHT22;5086;50.830;7.102;2023-06-22T06:27:54;23.60;99.90
10095;DHT22;5086;50.830;7.102;2023-06-22T06:30:21;23.70;99.90
10095;DHT22;5086;50.830;7.102;2023-06-22T06:33:02;23.70;99.90
10095;DHT22;5086;50.830;7.102;2023-06-22T06:35:30;23.60;99.90
10095;DHT22;5086;50.830;7.102;2023-06-22T06:37:57;23.60;99.90
10095;DHT22;5086;50.830;7.102;2023-06-22T06:40:24;23.30;99.90
10095;DHT22;5086;50.830;7.102;2023-06-22T06:42:50;23.30;99.90
10095;DHT22;5086;50.830;7.102;2023-06-22T06:45:20;23.40;99.90
10095;DHT22;5086;50.830;7.102;2023-06-22T06:47:48;23.40;99.90
10095;DHT22;5086;50.830;7.102;2023-06-22T06:50:16;23.30;99.90
10095;DHT22;5086;50.830;7.102;2023-06-22T06:52:43;23.30;99.90
10095;DHT22;5086;50.830;7.102;2023-06-22T06:55:10;23.50;99.90
10095;DHT22;5086;50.830;7.102;2023-06-22T06:57:40;23.50;99.90
10095;DHT22;5086;50.830;7.102;2023-06-22T07:00:08;23.60;99.90
10095;DHT22;5086;50.830;7.102;2023-06-22T07:02:39;23.90;99.90
10095;DHT22;5086;50.830;7.102;2023-06-22T07:05:07;24.10;99.90
10095;DHT22;5086;50.830;7.102;2023-06-22T07:07:34;24.40;99.90
10095;DHT22;5086;50.830;7.102;2023-06-22T07:10:01;24.60;99.90
10095;DHT22;5086;50.830;7.102;2023-06-22T07:12:28;24.80;99.90
10095;DHT22;5086;50.830;7.102;2023-06-22T07:15:01;25.20;99.90
10095;DHT22;5086;50.830;7.102;2023-06-22T07:17:28;25.30;99.90
10095;DHT22;5086;50.830;7.102;2023-06-22T07:19:57;25.20;99.90
10095;DHT22;5086;50.830;7.102;2023-06-22T07:22:23;25.10;99.90
10095;DHT22;5086;50.830;7.102;2023-06-22T07:24:50;25.20;99.90
10095;DHT22;5086;50.830;7.102;2023-06-22T07:27:17;24.80;99.90
10095;DHT22;5086;50.830;7.102;2023-06-22T07:29:45;24.70;99.90
10095;DHT22;5086;50.830;7.102;2023-06-22T07:32:12;24.80;99.90
10095;DHT22;5086;50.830;7.102;2023-06-22T07:34:39;24.70;99.90
10095;DHT22;5086;50.830;7.102;2023-06-22T07:37:08;24.80;99.90
10095;DHT22;5086;50.830;7.102;2023-06-22T07:39:35;25.00;99.90
10095;DHT22;5086;50.830;7.102;2023-06-22T07:42:03;25.40;99.90
10095;DHT22;5086;50.830;7.102;2023-06-22T07:44:30;25.50;99.90
10095;DHT22;5086;50.830;7.102;2023-06-22T07:46:57;25.80;99.90
10095;DHT22;5086;50.830;7.102;2023-06-22T07:49:24;26.10;99.90
10095;DHT22;5086;50.830;7.102;2023-06-22T07:52:00;25.90;99.90
10095;DHT22;5086;50.830;7.102;2023-06-22T07:54:29;25.90;99.90
10095;DHT22;5086;50.830;7.102;2023-06-22T07:56:56;26.10;99.90
10095;DHT22;5086;50.830;7.102;2023-06-22T07:59:22;26.60;99.90
10095;DHT22;5086;50.830;7.102;2023-06-22T08:01:49;26.80;99.90
10095;DHT22;5086;50.830;7.102;2023-06-22T08:04:16;27.30;99.90
10095;DHT22;5086;50.830;7.102;2023-06-22T08:06:43;27.80;99.90
10095;DHT22;5086;50.830;7.102;2023-06-22T08:09:10;28.70;99.90
10095;DHT22;5086;50.830;7.102;2023-06-22T08:11:39;29.20;99.90
10095;DHT22;5086;50.830;7.102;2023-06-22T08:14:05;29.40;99.90
10095;DHT22;5086;50.830;7.102;2023-06-22T08:16:32;29.30;99.90
10095;DHT22;5086;50.830;7.102;2023-06-22T08:18:59;29.40;99.90
10095;DHT22;5086;50.830;7.102;2023-06-22T08:21:28;29.10;99.90
10095;DHT22;5086;50.830;7.102;2023-06-22T08:23:55;28.80;99.90
10095;DHT22;5086;50.830;7.102;2023-06-22T08:26:22;28.80;99.90
10095;DHT22;5086;50.830;7.102;2023-06-22T08:28:50;28.60;99.90
10095;DHT22;5086;50.830;7.102;2023-06-22T08:31:18;28.50;99.90
10095;DHT22;5086;50.830;7.102;2023-06-22T08:33:45;28.30;99.90
10095;DHT22;5086;50.830;7.102;2023-06-22T08:36:12;28.40;99.90
10095;DHT22;5086;50.830;7.102;2023-06-22T08:38:39;28.40;99.90
10095;DHT22;5086;50.830;7.102;2023-06-22T08:41:06;28.10;99.90
10095;DHT22;5086;50.830;7.102;2023-06-22T08:43:33;28.40;99.90
10095;DHT22;5086;50.830;7.102;2023-06-22T08:46:01;27.60;99.90
10095;DHT22;5086;50.830;7.102;2023-06-22T08:48:28;27.20;99.90
10095;DHT22;5086;50.830;7.102;2023-06-22T08:50:55;27.00;99.90
10095;DHT22;5086;50.830;7.102;2023-06-22T08:53:25;26.80;99.90
10095;DHT22;5086;50.830;7.102;2023-06-22T08:55:52;26.60;99.90
10095;DHT22;5086;50.830;7.102;2023-06-22T08:58:19;26.80;99.90
10095;DHT22;5086;50.830;7.102;2023-06-22T09:00:47;26.90;99.90
10095;DHT22;5086;50.830;7.102;2023-06-22T09:03:15;27.00;99.90
10095;DHT22;5086;50.830;7.102;2023-06-22T09:05:42;26.90;99.90
10095;DHT22;5086;50.830;7.102;2023-06-22T09:08:11;26.70;99.90
10095;DHT22;5086;50.830;7.102;2023-06-22T09:10:38;26.60;99.90
10095;DHT22;5086;50.830;7.102;2023-06-22T09:13:05;26.90;99.90
10095;DHT22;5086;50.830;7.102;2023-06-22T09:15:31;27.00;99.90
10095;DHT22;5086;50.830;7.102;2023-06-22T09:17:59;27.40;99.90
10095;DHT22;5086;50.830;7.102;2023-06-22T09:20:28;27.50;99.90
10095;DHT22;5086;50.830;7.102;2023-06-22T09:22:55;27.20;99.90
10095;DHT22;5086;50.830;7.102;2023-06-22T09:25:22;27.10;99.90
10095;DHT22;5086;50.830;7.102;2023-06-22T09:27:49;27.30;99.90
10095;DHT22;5086;50.830;7.102;2023-06-22T09:30:16;27.30;99.90
10095;DHT22;5086;50.830;7.102;2023-06-22T09:32:42;27.40;99.90
10095;DHT22;5086;50.830;7.102;2023-06-22T09:35:09;27.20;99.90
10095;DHT22;5086;50.830;7.102;2023-06-22T09:37:41;27.10;99.90
10095;DHT22;5086;50.830;7.102;2023-06-22T09:40:09;27.30;99.90
10095;DHT22;5086;50.830;7.102;2023-06-22T09:42:38;27.60;99.90
10095;DHT22;5086;50.830;7.102;2023-06-22T09:45:06;27.80;99.90
10095;DHT22;5086;50.830;7.102;2023-06-22T09:47:33;28.10;99.90
10095;DHT22;5086;50.830;7.102;2023-06-22T09:50:00;28.10;99.90
10095;DHT22;5086;50.830;7.102;2023-06-22T09:52:27;28.40;99.90
10095;DHT22;5086;50.830;7.102;2023-06-22T09:54:57;28.60;99.90
10095;DHT22;5086;50.830;7.102;2023-06-22T09:57:24;28.40;99.90
10095;DHT22;5086;50.830;7.102;2023-06-22T09:59:53;28.20;99.90
10095;DHT22;5086;50.830;7.102;2023-06-22T10:02:27;28.20;99.90
10095;DHT22;5086;50.830;7.102;2023-06-22T10:04:55;27.80;99.90
10095;DHT22;5086;50.830;7.102;2023-06-22T10:07:23;27.30;99.90
10095;DHT22;5086;50.830;7.102;2023-06-22T10:09:49;27.00;99.90
10095;DHT22;5086;50.830;7.102;2023-06-22T10:12:18;26.80;99.90
10095;DHT22;5086;50.830;7.102;2023-06-22T10:14:44;26.80;99.90
10095;DHT22;5086;50.830;7.102;2023-06-22T10:17:11;26.80;99.90
10095;DHT22;5086;50.830;7.102;2023-06-22T10:19:38;26.90;99.90
10095;DHT22;5086;50.830;7.102;2023-06-22T10:22:07;26.90;99.90
10095;DHT22;5086;50.830;7.102;2023-06-22T10:24:34;26.80;99.90
10095;DHT22;5086;50.830;7.102;2023-06-22T10:27:01;26.70;99.90
10095;DHT22;5086;50.830;7.102;2023-06-22T10:29:29;26.50;99.90
10095;DHT22;5086;50.830;7.102;2023-06-22T10:31:56;26.10;99.90
10095;DHT22;5086;50.830;7.102;2023-06-22T10:34:23;25.70;99.90
10095;DHT22;5086;50.830;7.102;2023-06-22T10:36:50;25.50;99.90
10095;DHT22;5086;50.830;7.102;2023-06-22T10:39:17;25.40;99.90
10095;DHT22;5086;50.830;7.102;2023-06-22T10:41:43;25.10;99.90
10095;DHT22;5086;50.830;7.102;2023-06-22T10:44:10;24.60;99.90
10095;DHT22;5086;50.830;7.102;2023-06-22T10:46:39;24.50;99.90
10095;DHT22;5086;50.830;7.102;2023-06-22T10:49:06;24.20;99.90
10095;DHT22;5086;50.830;7.102;2023-06-22T10:51:33;24.10;99.90
10095;DHT22;5086;50.830;7.102;2023-06-22T10:54:00;23.90;99.90
10095;DHT22;5086;50.830;7.102;2023-06-22T10:56:27;23.60;99.90
10095;DHT22;5086;50.830;7.102;2023-06-22T10:58:54;23.70;99.90
10095;DHT22;5086;50.830;7.102;2023-06-22T11:01:21;23.80;99.90
10095;DHT22;5086;50.830;7.102;2023-06-22T11:03:50;23.90;99.90
10095;DHT22;5086;50.830;7.102;2023-06-22T11:06:28;23.90;99.90
10095;DHT22;5086;50.830;7.102;2023-06-22T11:08:57;23.90;99.90
10095;DHT22;5086;50.830;7.102;2023-06-22T11:11:25;23.60;99.90
10095;DHT22;5086;50.830;7.102;2023-06-22T11:13:52;23.20;99.90
10095;DHT22;5086;50.830;7.102;2023-06-22T11:19:23;23.30;99.90
10095;DHT22;5086;50.830;7.102;2023-06-22T11:22:05;23.30;99.90
10095;DHT22;5086;50.830;7.102;2023-06-22T11:24:32;23.40;99.90
10095;DHT22;5086;50.830;7.102;2023-06-22T11:27:42;23.40;99.90
10095;DHT22;5086;50.830;7.102;2023-06-22T11:30:23;23.60;99.90
10095;DHT22;5086;50.830;7.102;2023-06-22T11:33:16;23.60;99.90
10095;DHT22;5086;50.830;7.102;2023-06-22T11:42:47;23.60;99.90
10095;DHT22;5086;50.830;7.102;2023-06-22T11:45:14;23.90;99.90
10095;DHT22;5086;50.830;7.102;2023-06-22T11:47:42;23.80;99.90
10095;DHT22;5086;50.830;7.102;2023-06-22T11:50:10;24.20;99.90
10095;DHT22;5086;50.830;7.102;2023-06-22T11:52:37;24.60;99.90
10095;DHT22;5086;50.830;7.102;2023-06-22T11:55:05;24.90;99.90
10095;DHT22;5086;50.830;7.102;2023-06-22T11:57:33;25.00;99.90
10095;DHT22;5086;50.830;7.102;2023-06-22T12:00:02;25.50;99.90
10095;DHT22;5086;50.830;7.102;2023-06-22T12:02:36;25.60;99.90
10095;DHT22;5086;50.830;7.102;2023-06-22T12:05:03;25.40;99.90
10095;DHT22;5086;50.830;7.102;2023-06-22T12:07:30;25.20;99.90
10095;DHT22;5086;50.830;7.102;2023-06-22T12:09:57;24.80;99.90
10095;DHT22;5086;50.830;7.102;2023-06-22T12:12:24;24.80;99.90
10095;DHT22;5086;50.830;7.102;2023-06-22T12:14:51;24.50;99.90
10095;DHT22;5086;50.830;7.102;2023-06-22T12:17:19;24.60;99.90
10095;DHT22;5086;50.830;7.102;2023-06-22T12:19:46;24.70;99.90
10095;DHT22;5086;50.830;7.102;2023-06-22T12:22:13;24.50;99.90
10095;DHT22;5086;50.830;7.102;2023-06-22T12:24:40;24.30;99.90
10095;DHT22;5086;50.830;7.102;2023-06-22T12:27:07;24.20;99.90
10095;DHT22;5086;50.830;7.102;2023-06-22T12:29:33;24.10;99.90
10095;DHT22;5086;50.830;7.102;2023-06-22T12:32:01;23.90;99.90
10095;DHT22;5086;50.830;7.102;2023-06-22T12:34:29;23.90;99.90
10095;DHT22;5086;50.830;7.102;2023-06-22T12:36:56;23.90;99.90
10095;DHT22;5086;50.830;7.102;2023-06-22T12:39:23;24.10;99.90
10095;DHT22;5086;50.830;7.102;2023-06-22T12:41:53;24.40;99.90
10095;DHT22;5086;50.830;7.102;2023-06-22T12:44:20;24.80;99.90
10095;DHT22;5086;50.830;7.102;2023-06-22T12:46:47;25.00;99.90
10095;DHT22;5086;50.830;7.102;2023-06-22T12:49:14;25.10;99.90
10095;DHT22;5086;50.830;7.102;2023-06-22T12:51:47;25.10;99.90
10095;DHT22;5086;50.830;7.102;2023-06-22T12:54:14;24.60;99.90
10095;DHT22;5086;50.830;7.102;2023-06-22T12:56:41;24.80;99.90
10095;DHT22;5086;50.830;7.102;2023-06-22T12:59:09;24.70;99.90
10095;DHT22;5086;50.830;7.102;2023-06-22T13:01:36;24.60;99.90
10095;DHT22;5086;50.830;7.102;2023-06-22T13:04:03;24.70;99.90
10095;DHT22;5086;50.830;7.102;2023-06-22T13:06:30;24.80;99.90
10095;DHT22;5086;50.830;7.102;2023-06-22T13:08:59;25.00;99.90
10095;DHT22;5086;50.830;7.102;2023-06-22T13:11:26;25.20;99.90
10095;DHT22;5086;50.830;7.102;2023-06-22T13:13:53;25.30;99.90
10095;DHT22;5086;50.830;7.102;2023-06-22T13:16:20;25.40;99.90
10095;DHT22;5086;50.830;7.102;2023-06-22T13:18:47;25.50;99.90
10095;DHT22;5086;50.830;7.102;2023-06-22T13:21:17;25.50;99.90
10095;DHT22;5086;50.830;7.102;2023-06-22T13:23:44;25.50;99.90
10095;DHT22;5086;50.830;7.102;2023-06-22T13:26:13;25.60;99.90
10095;DHT22;5086;50.830;7.102;2023-06-22T13:28:42;25.60;99.90
10095;DHT22;5086;50.830;7.102;2023-06-22T13:31:09;25.50;99.90
10095;DHT22;5086;50.830;7.102;2023-06-22T13:33:38;25.40;99.90
10095;DHT22;5086;50.830;7.102;2023-06-22T13:36:06;25.50;99.90
10095;DHT22;5086;50.830;7.102;2023-06-22T13:38:35;25.60;99.90
10095;DHT22;5086;50.830;7.102;2023-06-22T13:41:03;25.60;99.90
10095;DHT22;5086;50.830;7.102;2023-06-22T13:43:32;25.70;99.90
10095;DHT22;5086;50.830;7.102;2023-06-22T13:45:59;25.70;99.90
10095;DHT22;5086;50.830;7.102;2023-06-22T13:48:26;25.70;99.90
10095;DHT22;5086;50.830;7.102;2023-06-22T13:50:54;25.70;99.90
10095;DHT22;5086;50.830;7.102;2023-06-22T13:53:21;25.70;99.90
10095;DHT22;5086;50.830;7.102;2023-06-22T13:55:48;25.60;99.90
10095;DHT22;5086;50.830;7.102;2023-06-22T13:58:18;25.60;99.90
10095;DHT22;5086;50.830;7.102;2023-06-22T14:00:47;25.70;99.90
10095;DHT22;5086;50.830;7.102;2023-06-22T14:03:14;25.80;99.90
10095;DHT22;5086;50.830;7.102;2023-06-22T14:05:43;26.00;99.90
10095;DHT22;5086;50.830;7.102;2023-06-22T14:08:10;25.90;99.90
10095;DHT22;5086;50.830;7.102;2023-06-22T14:10:37;25.90;99.90
10095;DHT22;5086;50.830;7.102;2023-06-22T14:13:04;25.80;99.90
10095;DHT22;5086;50.830;7.102;2023-06-22T14:15:33;25.60;99.90
10095;DHT22;5086;50.830;7.102;2023-06-22T14:18:19;25.60;99.90
10095;DHT22;5086;50.830;7.102;2023-06-22T14:20:57;25.60;99.90
10095;DHT22;5086;50.830;7.102;2023-06-22T14:23:37;25.70;99.90
10095;DHT22;5086;50.830;7.102;2023-06-22T14:26:04;25.50;99.90
10095;DHT22;5086;50.830;7.102;2023-06-22T14:28:47;25.50;99.90
10095;DHT22;5086;50.830;7.102;2023-06-22T14:31:31;25.40;99.90
10095;DHT22;5086;50.830;7.102;2023-06-22T14:37:59;25.20;99.90
10095;DHT22;5086;50.830;7.102;2023-06-22T14:40:41;25.00;99.90
10095;DHT22;5086;50.830;7.102;2023-06-22T14:43:26;24.90;99.90
10095;DHT22;5086;50.830;7.102;2023-06-22T14:45:53;24.80;99.90
10095;DHT22;5086;50.830;7.102;2023-06-22T14:48:21;24.80;99.90
10095;DHT22;5086;50.830;7.102;2023-06-22T14:50:49;24.90;99.90
10095;DHT22;5086;50.830;7.102;2023-06-22T14:53:17;24.70;99.90
10095;DHT22;5086;50.830;7.102;2023-06-22T14:55:44;24.40;99.90
10095;DHT22;5086;50.830;7.102;2023-06-22T14:58:13;24.20;99.90
10095;DHT22;5086;50.830;7.102;2023-06-22T15:03:53;23.80;99.90
10095;DHT22;5086;50.830;7.102;2023-06-22T15:06:20;23.60;99.90
10095;DHT22;5086;50.830;7.102;2023-06-22T15:08:55;23.50;99.90
10095;DHT22;5086;50.830;7.102;2023-06-22T15:11:23;23.50;99.90
10095;DHT22;5086;50.830;7.102;2023-06-22T15:13:52;23.40;99.90
10095;DHT22;5086;50.830;7.102;2023-06-22T15:16:20;23.40;99.90
10095;DHT22;5086;50.830;7.102;2023-06-22T15:18:47;23.30;99.90
10095;DHT22;5086;50.830;7.102;2023-06-22T15:21:14;23.10;99.90
10095;DHT22;5086;50.830;7.102;2023-06-22T15:23:42;22.90;99.90
10095;DHT22;5086;50.830;7.102;2023-06-22T15:26:12;22.70;99.90
10095;DHT22;5086;50.830;7.102;2023-06-22T15:28:39;22.60;99.90
10095;DHT22;5086;50.830;7.102;2023-06-22T15:31:06;22.40;99.90
10095;DHT22;5086;50.830;7.102;2023-06-22T15:33:33;22.30;99.90
10095;DHT22;5086;50.830;7.102;2023-06-22T15:36:00;22.30;99.90
10095;DHT22;5086;50.830;7.102;2023-06-22T15:38:29;22.30;99.90
10095;DHT22;5086;50.830;7.102;2023-06-22T15:40:56;22.40;99.90
10095;DHT22;5086;50.830;7.102;2023-06-22T15:43:25;22.30;99.90
10095;DHT22;5086;50.830;7.102;2023-06-22T15:45:52;22.40;99.90
10095;DHT22;5086;50.830;7.102;2023-06-22T15:48:20;22.30;99.90
10095;DHT22;5086;50.830;7.102;2023-06-22T15:50:47;22.40;99.90
10095;DHT22;5086;50.830;7.102;2023-06-22T15:53:14;22.20;99.90
10095;DHT22;5086;50.830;7.102;2023-06-22T15:55:41;22.30;99.90
10095;DHT22;5086;50.830;7.102;2023-06-22T15:58:08;22.40;99.90
10095;DHT22;5086;50.830;7.102;2023-06-22T16:00:39;22.50;99.90
10095;DHT22;5086;50.830;7.102;2023-06-22T16:03:06;22.50;99.90
10095;DHT22;5086;50.830;7.102;2023-06-22T16:05:33;22.50;99.90
10095;DHT22;5086;50.830;7.102;2023-06-22T16:08:00;22.40;99.90
10095;DHT22;5086;50.830;7.102;2023-06-22T16:10:27;22.40;99.90
10095;DHT22;5086;50.830;7.102;2023-06-22T16:12:54;22.50;99.90
10095;DHT22;5086;50.830;7.102;2023-06-22T16:15:21;22.50;99.90